Time;durP1;ratioP1;P1;durP2;ratioP2;P2;SDS_P1;SDS_P2;PMS_P1;PMS_P2;Temp;Humidity;BMP_temperature;BMP_pressure;BME280_temperature;BME280_humidity;BME280_pressure;Samples;Min_cycle;Max_cycle;Signal;HPM_P1;HPM_P2
2021/12/17 00:04:50;;;;;;;33.08;11.73;;;8.40;99.90;;;;;;5057340;28;20131;-68
2021/12/17 00:07:17;;;;;;;36.15;13.27;;;8.40;99.90;;;;;;5072562;28;20144;-68
2021/12/17 00:09:46;;;;;;;33.28;12.05;;;8.50;99.90;;;;;;5057766;28;20141;-67
2021/12/17 00:12:17;;;;;;;27.98;11.55;;;8.40;99.90;;;;;;5052656;28;20462;-67
2021/12/17 00:14:47;;;;;;;30.42;11.15;;;8.40;99.90;;;;;;5056593;28;20036;-68
2021/12/17 00:17:17;;;;;;;33.92;13.27;;;8.40;99.90;;;;;;5052440;28;20407;-67
2021/12/17 00:49:27;;;;;;;36.97;12.20;;;8.20;99.90;;;;;;5063800;28;20084;-68
2021/12/17 00:51:58;;;;;;;36.28;11.75;;;8.20;99.90;;;;;;5064614;28;20052;-67
2021/12/17 00:54:45;;;;;;;33.58;11.05;;;8.20;99.90;;;;;;5052565;28;20194;-67
2021/12/17 00:57:18;;;;;;;28.25;9.00;;;8.20;99.90;;;;;;5058979;28;20044;-67
2021/12/17 00:59:47;;;;;;;22.20;9.07;;;8.30;99.90;;;;;;5064046;28;20043;-67
2021/12/17 01:02:17;;;;;;;23.92;9.70;;;8.20;99.90;;;;;;5059240;28;20044;-67
2021/12/17 01:04:49;;;;;;;24.42;9.02;;;8.20;99.90;;;;;;5064443;28;20534;-67
2021/12/17 01:07:15;;;;;;;30.08;10.48;;;8.20;99.90;;;;;;5055024;28;20551;-68
2021/12/17 01:09:42;;;;;;;23.13;8.70;;;8.20;99.90;;;;;;5064940;28;20074;-68
2021/12/17 01:12:08;;;;;;;25.73;9.00;;;8.20;99.90;;;;;;5052624;28;20128;-68
2021/12/17 01:14:35;;;;;;;18.63;8.50;;;8.20;99.90;;;;;;5060359;28;20044;-67
2021/12/17 01:17:01;;;;;;;25.67;8.57;;;8.10;99.90;;;;;;5063118;28;20112;-68
2021/12/17 01:25:07;;;;;;;18.73;7.15;;;8.10;99.90;;;;;;5058454;28;20052;-68
2021/12/17 01:35:45;;;;;;;10.13;5.32;;;8.10;99.90;;;;;;5053953;28;20048;-67
2021/12/17 01:43:48;;;;;;;12.48;5.45;;;8.10;99.90;;;;;;5063779;28;20056;-67
2021/12/17 01:46:20;;;;;;;9.57;4.90;;;8.10;99.90;;;;;;5057210;28;20045;-69
2021/12/17 01:55:37;;;;;;;12.07;5.22;;;8.10;99.90;;;;;;5054886;28;20553;-68
2021/12/17 02:00:11;;;;;;;9.70;4.78;;;8.10;99.90;;;;;;5063810;28;20045;-69
2021/12/17 02:02:44;;;;;;;10.68;4.75;;;8.10;99.90;;;;;;5038697;28;20055;-68
2021/12/17 02:05:10;;;;;;;9.52;4.82;;;8.10;99.90;;;;;;5065234;28;20052;-68
2021/12/17 02:07:37;;;;;;;8.63;4.43;;;8.10;99.90;;;;;;5076202;28;20068;-68
2021/12/17 02:31:33;;;;;;;8.57;4.63;;;8.10;99.90;;;;;;5051528;28;20517;-68
2021/12/17 02:34:06;;;;;;;9.05;4.50;;;8.10;99.90;;;;;;5051244;28;20128;-68
2021/12/17 02:36:34;;;;;;;6.65;4.35;;;8.20;99.90;;;;;;5053370;28;20044;-68
2021/12/17 02:39:42;;;;;;;7.93;4.10;;;8.20;99.90;;;;;;5064646;28;20528;-68
2021/12/17 02:47:23;;;;;;;8.48;4.53;;;8.20;99.90;;;;;;5057662;28;20045;-67
2021/12/17 02:49:49;;;;;;;7.75;4.32;;;8.10;99.90;;;;;;5072744;28;20094;-68
2021/12/17 02:52:15;;;;;;;6.85;4.00;;;8.10;99.90;;;;;;5061279;28;20040;-68
2021/12/17 02:54:41;;;;;;;7.05;4.35;;;8.10;99.90;;;;;;5057077;28;20041;-66
2021/12/17 02:57:09;;;;;;;7.70;4.28;;;8.10;99.90;;;;;;5068227;28;20045;-67
2021/12/17 02:59:37;;;;;;;7.72;4.78;;;8.10;99.90;;;;;;5045350;28;20041;-68
2021/12/17 03:02:04;;;;;;;9.13;4.35;;;8.00;99.90;;;;;;5068706;28;20180;-67
2021/12/17 03:04:33;;;;;;;8.50;4.43;;;8.10;99.90;;;;;;5067647;28;20044;-67
2021/12/17 03:06:59;;;;;;;9.35;4.50;;;8.10;99.90;;;;;;5058663;28;20045;-67
2021/12/17 03:09:45;;;;;;;7.47;4.68;;;8.00;99.90;;;;;;5058579;28;20039;-67
2021/12/17 03:12:19;;;;;;;8.95;4.53;;;8.00;99.90;;;;;;5055933;28;20470;-68
2021/12/17 03:15:16;;;;;;;6.93;4.38;;;8.00;99.90;;;;;;5061156;28;20041;-67
2021/12/17 03:25:44;;;;;;;8.52;4.50;;;8.10;99.90;;;;;;5058479;28;20072;-68
2021/12/17 03:28:10;;;;;;;8.75;4.63;;;8.10;99.90;;;;;;5062961;28;20494;-68
2021/12/17 03:30:36;;;;;;;8.80;4.50;;;8.10;99.90;;;;;;5069276;28;20044;-68
2021/12/17 03:33:03;;;;;;;7.80;4.32;;;8.10;99.90;;;;;;5068583;28;20052;-68
2021/12/17 03:35:28;;;;;;;6.75;4.10;;;8.10;99.90;;;;;;5069347;28;20071;-67
2021/12/17 03:37:54;;;;;;;6.97;4.20;;;8.10;99.90;;;;;;5054494;28;20053;-67
2021/12/17 03:40:20;;;;;;;7.43;4.40;;;8.20;99.90;;;;;;5058306;28;20535;-67
2021/12/17 03:42:49;;;;;;;7.25;4.63;;;8.10;99.90;;;;;;5042498;28;20126;-68
2021/12/17 03:45:18;;;;;;;6.97;4.60;;;8.20;99.90;;;;;;5065578;28;20083;-67
2021/12/17 03:47:44;;;;;;;9.93;4.80;;;8.20;99.90;;;;;;5060691;28;20040;-68
2021/12/17 03:50:09;;;;;;;8.45;4.63;;;8.10;99.90;;;;;;5046740;28;20037;-67
2021/12/17 03:52:35;;;;;;;10.57;4.47;;;8.10;99.90;;;;;;5052884;28;20067;-66
2021/12/17 03:55:01;;;;;;;9.27;3.80;;;8.10;99.90;;;;;;5056264;28;20036;-67
2021/12/17 03:57:26;;;;;;;8.95;5.10;;;8.10;99.90;;;;;;5058416;28;20080;-67
2021/12/17 03:59:52;;;;;;;8.38;4.47;;;8.10;99.90;;;;;;5065691;28;20143;-68
2021/12/17 04:02:18;;;;;;;8.90;4.50;;;8.10;99.90;;;;;;5050801;28;20151;-67
2021/12/17 04:04:44;;;;;;;8.60;4.70;;;8.10;99.90;;;;;;5059917;28;20127;-68
2021/12/17 04:07:10;;;;;;;8.20;4.05;;;8.10;99.90;;;;;;5063930;28;20048;-68
2021/12/17 04:09:36;;;;;;;7.13;4.40;;;8.10;99.90;;;;;;5042668;28;20501;-68
2021/12/17 04:12:04;;;;;;;8.25;4.28;;;8.10;99.90;;;;;;5056855;28;20041;-68
2021/12/17 04:14:41;;;;;;;9.00;4.50;;;8.10;99.90;;;;;;5057481;28;20135;-67
2021/12/17 04:17:06;;;;;;;11.00;5.10;;;8.10;99.90;;;;;;5054976;28;20045;-67
2021/12/17 04:19:34;;;;;;;8.50;4.53;;;8.10;99.90;;;;;;5064950;28;20097;-67
2021/12/17 04:22:00;;;;;;;11.95;5.53;;;8.10;99.90;;;;;;5057305;28;20044;-67
2021/12/17 04:24:26;;;;;;;10.02;5.20;;;8.10;99.90;;;;;;5061080;28;20041;-68
2021/12/17 04:26:51;;;;;;;10.50;5.25;;;8.10;99.90;;;;;;5056358;28;20170;-68
2021/12/17 04:29:18;;;;;;;10.00;5.22;;;8.10;99.90;;;;;;5070547;28;20036;-68
2021/12/17 04:31:50;;;;;;;12.60;5.45;;;8.10;99.90;;;;;;5055554;28;20103;-68
2021/12/17 04:34:17;;;;;;;12.38;6.22;;;8.10;99.90;;;;;;5057711;28;20076;-67
2021/12/17 04:36:44;;;;;;;12.95;6.35;;;8.00;99.90;;;;;;5056131;28;20049;-67
2021/12/17 04:39:10;;;;;;;14.65;5.93;;;8.10;99.90;;;;;;5056383;28;20044;-68
2021/12/17 04:41:46;;;;;;;15.13;6.60;;;8.10;99.90;;;;;;5063382;28;20059;-68
2021/12/17 04:44:25;;;;;;;15.23;7.07;;;8.10;99.90;;;;;;5058250;28;20453;-67
2021/12/17 04:57:13;;;;;;;;;;;8.10;99.90;;;;;;5058375;28;20045;-67
2021/12/17 04:57:46;;;;;;;17.08;8.70;;;8.00;99.90;;;;;;5060218;28;20055;-67
2021/12/17 05:00:18;;;;;;;;;;;8.10;99.90;;;;;;5059495;28;20057;-68
2021/12/17 05:02:47;;;;;;;17.67;8.20;;;8.10;99.90;;;;;;5052816;28;19971;-68
2021/12/17 05:05:14;;;;;;;20.63;9.52;;;8.00;99.90;;;;;;5063997;28;20446;-68
2021/12/17 05:07:46;;;;;;;19.88;9.52;;;8.00;99.90;;;;;;5067369;28;20045;-68
2021/12/17 05:20:50;;;;;;;19.90;10.32;;;8.10;99.90;;;;;;5053906;28;20052;-67
2021/12/17 05:23:29;;;;;;;17.27;9.60;;;8.10;99.90;;;;;;5057690;28;20048;-68
2021/12/17 05:25:55;;;;;;;22.13;9.95;;;8.10;99.90;;;;;;5052921;28;20044;-67
2021/12/17 05:28:21;;;;;;;24.23;10.82;;;8.00;99.90;;;;;;5050195;28;20045;-67
2021/12/17 05:30:48;;;;;;;21.00;9.82;;;8.00;99.90;;;;;;5051450;28;20045;-69
2021/12/17 05:33:25;;;;;;;24.30;10.88;;;8.00;99.90;;;;;;5053536;28;20502;-68
2021/12/17 05:35:51;;;;;;;20.67;10.68;;;8.00;99.90;;;;;;5064047;28;20036;-67
2021/12/17 05:38:19;;;;;;;23.70;11.35;;;8.00;99.90;;;;;;5053670;28;20037;-67
2021/12/17 05:40:45;;;;;;;24.58;11.57;;;8.00;99.90;;;;;;5060689;28;20479;-69
2021/12/17 05:43:11;;;;;;;25.13;12.25;;;8.10;99.90;;;;;;5053373;28;20123;-68
2021/12/17 05:48:09;;;;;;;20.35;11.02;;;8.00;99.90;;;;;;5052447;28;20050;-67
2021/12/17 05:50:40;;;;;;;25.65;11.60;;;8.10;99.90;;;;;;5059615;28;20041;-68
2021/12/17 05:53:06;;;;;;;24.13;10.93;;;8.10;99.90;;;;;;5068753;28;20044;-67
2021/12/17 05:55:34;;;;;;;25.42;12.23;;;8.10;99.90;;;;;;5058556;28;20098;-69
2021/12/17 05:58:00;;;;;;;22.30;10.20;;;8.10;99.90;;;;;;5060410;28;20037;-68
2021/12/17 06:00:29;;;;;;;25.95;11.48;;;8.10;99.90;;;;;;5050652;28;20037;-68
2021/12/17 06:02:56;;;;;;;24.45;11.90;;;8.10;99.90;;;;;;5060828;28;20045;-67
2021/12/17 06:05:22;;;;;;;23.95;11.75;;;8.10;99.90;;;;;;5058980;28;20040;-67
2021/12/17 06:07:48;;;;;;;28.50;12.05;;;8.10;99.90;;;;;;5059245;28;20044;-67
2021/12/17 06:10:14;;;;;;;26.30;10.68;;;8.10;99.90;;;;;;5063157;28;20040;-68
2021/12/17 06:12:40;;;;;;;26.02;11.60;;;8.10;99.90;;;;;;5065011;28;20036;-68
2021/12/17 06:15:08;;;;;;;24.55;11.30;;;8.10;99.90;;;;;;5054558;28;20524;-68
2021/12/17 06:17:34;;;;;;;29.63;11.82;;;8.10;99.90;;;;;;5058596;28;20056;-68
2021/12/17 06:20:00;;;;;;;24.25;9.80;;;8.10;99.90;;;;;;5060251;28;20048;-67
2021/12/17 06:22:25;;;;;;;27.00;11.75;;;8.10;99.90;;;;;;5057244;28;20045;-67
2021/12/17 06:24:52;;;;;;;27.67;11.77;;;8.10;99.90;;;;;;5067917;28;20132;-68
2021/12/17 06:27:19;;;;;;;26.83;11.45;;;8.00;99.90;;;;;;5059138;28;20127;-67
2021/12/17 06:29:45;;;;;;;22.50;10.40;;;8.00;99.90;;;;;;5064111;28;20439;-66
2021/12/17 06:32:11;;;;;;;25.70;11.40;;;8.10;99.90;;;;;;5057537;28;20036;-67
2021/12/17 06:34:38;;;;;;;30.60;12.52;;;8.00;99.90;;;;;;5059510;28;20049;-67
2021/12/17 06:37:05;;;;;;;22.05;10.65;;;8.00;99.90;;;;;;5058962;28;20139;-67
2021/12/17 06:39:32;;;;;;;27.15;11.18;;;8.00;99.90;;;;;;5071964;28;20048;-67
2021/12/17 06:41:58;;;;;;;27.38;11.23;;;8.00;99.90;;;;;;5062285;28;20056;-67
2021/12/17 06:44:25;;;;;;;26.58;11.05;;;8.00;99.90;;;;;;5062817;28;20041;-66
2021/12/17 06:54:58;;;;;;;26.65;10.35;;;7.90;99.90;;;;;;5067151;28;20049;-68
2021/12/17 07:11:14;;;;;;;32.40;12.05;;;8.00;99.90;;;;;;5066643;28;20131;-68
2021/12/17 07:21:56;;;;;;;29.83;12.13;;;8.10;99.90;;;;;;5053274;28;20048;-67
2021/12/17 07:28:05;;;;;;;29.05;13.18;;;8.10;99.90;;;;;;5056254;28;20086;-67
2021/12/17 07:40:13;;;;;;;33.40;12.13;;;8.20;99.90;;;;;;5032455;28;20084;-67
2021/12/17 07:42:39;;;;;;;30.67;11.80;;;8.20;99.90;;;;;;5053317;28;20044;-67
2021/12/17 07:45:05;;;;;;;30.88;11.88;;;8.30;99.90;;;;;;5053358;28;20040;-67
2021/12/17 07:47:31;;;;;;;34.38;12.23;;;8.20;99.90;;;;;;5053701;28;20041;-68
2021/12/17 07:49:57;;;;;;;30.48;12.13;;;8.20;99.90;;;;;;5056977;28;20120;-68
2021/12/17 07:52:22;;;;;;;31.17;12.10;;;8.20;99.90;;;;;;5064201;28;20086;-68
2021/12/17 07:54:48;;;;;;;28.27;11.95;;;8.20;99.90;;;;;;5057892;28;20066;-67
2021/12/17 07:57:14;;;;;;;29.92;12.32;;;8.30;99.90;;;;;;5056538;28;20048;-68
2021/12/17 07:59:40;;;;;;;26.58;11.85;;;8.30;99.90;;;;;;5063008;28;20120;-67
2021/12/17 08:02:06;;;;;;;26.80;12.52;;;8.20;99.90;;;;;;5059971;28;20475;-69
2021/12/17 08:04:32;;;;;;;27.80;12.48;;;8.20;99.90;;;;;;5052614;28;20111;-68
2021/12/17 08:06:58;;;;;;;29.20;12.98;;;8.30;99.90;;;;;;5054286;28;20033;-68
2021/12/17 08:09:25;;;;;;;30.48;11.95;;;8.30;99.90;;;;;;5061348;28;20047;-67
2021/12/17 08:11:56;;;;;;;31.63;12.85;;;8.30;99.90;;;;;;5058619;28;20491;-68
2021/12/17 08:14:22;;;;;;;28.38;11.40;;;8.40;99.90;;;;;;5052005;28;20344;-68
2021/12/17 08:17:01;;;;;;;28.30;11.32;;;8.50;99.90;;;;;;5063923;28;20054;-67
2021/12/17 08:25:11;;;;;;;26.23;12.43;;;8.40;99.90;;;;;;5061183;28;20075;-68
2021/12/17 08:32:45;;;;;;;31.27;13.30;;;8.50;99.90;;;;;;5068060;28;20076;-67
2021/12/17 08:35:11;;;;;;;29.33;13.52;;;8.50;99.90;;;;;;5066400;28;20055;-66
2021/12/17 08:37:37;;;;;;;32.72;13.48;;;8.50;99.90;;;;;;5056835;28;20132;-66
2021/12/17 08:40:04;;;;;;;28.88;14.05;;;8.50;99.90;;;;;;5060105;28;20079;-67
2021/12/17 08:42:30;;;;;;;33.10;13.27;;;8.50;99.90;;;;;;5060036;28;20041;-67
2021/12/17 08:44:56;;;;;;;26.15;12.45;;;8.50;99.90;;;;;;5071591;28;20041;-67
2021/12/17 08:47:22;;;;;;;27.95;13.25;;;8.60;99.90;;;;;;5056202;28;20055;-77
2021/12/17 08:49:50;;;;;;;30.45;13.45;;;8.50;99.90;;;;;;5059338;28;20044;-68
2021/12/17 08:52:16;;;;;;;28.67;11.93;;;8.50;99.90;;;;;;5052808;28;20045;-69
2021/12/17 08:54:41;;;;;;;23.75;11.63;;;8.50;99.90;;;;;;5052396;28;20063;-69
2021/12/17 08:57:07;;;;;;;25.58;12.10;;;8.60;99.90;;;;;;5065478;28;20045;-67
2021/12/17 08:59:33;;;;;;;20.02;10.27;;;8.50;99.90;;;;;;5067946;28;20052;-68
2021/12/17 09:01:59;;;;;;;17.15;9.85;;;8.60;99.90;;;;;;5059749;28;20037;-68
2021/12/17 09:04:27;;;;;;;21.90;10.98;;;8.70;99.90;;;;;;5056061;28;20440;-68
2021/12/17 09:06:54;;;;;;;21.63;10.07;;;8.70;99.90;;;;;;5052918;28;20399;-68
2021/12/17 09:09:22;;;;;;;21.43;10.00;;;8.70;99.90;;;;;;5051380;28;20041;-67
2021/12/17 09:11:47;;;;;;;19.77;9.55;;;8.70;99.90;;;;;;5054821;28;20064;-68
2021/12/17 09:14:14;;;;;;;20.65;9.63;;;8.70;99.90;;;;;;5051231;28;20037;-66
2021/12/17 09:16:40;;;;;;;20.27;8.82;;;8.70;99.90;;;;;;5052667;28;20140;-67
2021/12/17 09:19:09;;;;;;;17.65;8.57;;;8.70;99.90;;;;;;5053567;28;20386;-67
2021/12/17 09:21:34;;;;;;;18.38;8.55;;;8.80;99.90;;;;;;5051934;28;20518;-67
2021/12/17 09:24:00;;;;;;;19.33;8.48;;;8.80;99.90;;;;;;5061034;28;20071;-67
2021/12/17 09:26:26;;;;;;;18.20;9.02;;;8.80;99.90;;;;;;5061213;28;20037;-67
2021/12/17 09:28:51;;;;;;;23.67;8.77;;;8.90;99.90;;;;;;5069170;28;20511;-68
2021/12/17 09:31:18;;;;;;;19.48;8.52;;;8.90;99.90;;;;;;5062107;28;20044;-68
2021/12/17 09:33:49;;;;;;;27.15;9.60;;;8.90;99.90;;;;;;5051677;28;20431;-66
2021/12/17 09:36:15;;;;;;;21.65;8.90;;;8.90;99.90;;;;;;5050655;28;20052;-66
2021/12/17 09:38:41;;;;;;;19.83;9.68;;;8.90;99.90;;;;;;5066473;28;20032;-65
2021/12/17 09:41:07;;;;;;;22.55;9.25;;;8.90;99.90;;;;;;5067823;28;20158;-67
2021/12/17 09:43:35;;;;;;;20.30;8.90;;;8.90;99.90;;;;;;5051409;28;20048;-66
2021/12/17 09:46:04;;;;;;;19.50;8.73;;;8.90;99.90;;;;;;5055406;28;20708;-65
2021/12/17 09:48:31;;;;;;;18.52;9.60;;;8.90;99.90;;;;;;5057217;28;20083;-67
2021/12/17 09:50:57;;;;;;;24.02;9.30;;;8.90;99.90;;;;;;5054837;28;20080;-66
2021/12/17 09:53:23;;;;;;;19.00;8.50;;;8.90;99.90;;;;;;5059700;28;20524;-67
2021/12/17 09:55:50;;;;;;;20.67;9.32;;;9.00;99.90;;;;;;5071074;28;20075;-66
2021/12/17 09:58:16;;;;;;;19.70;8.57;;;9.00;99.90;;;;;;5059190;28;20045;-65
2021/12/17 10:00:42;;;;;;;20.63;8.82;;;8.90;99.90;;;;;;5051129;28;20140;-66
2021/12/17 10:03:08;;;;;;;22.08;9.68;;;8.90;99.90;;;;;;5051027;28;20068;-66
2021/12/17 10:05:36;;;;;;;22.48;9.50;;;8.90;99.90;;;;;;5049385;28;20067;-65
2021/12/17 10:08:10;;;;;;;20.60;9.63;;;8.90;99.90;;;;;;5071488;28;20137;-66
2021/12/17 10:10:39;;;;;;;22.88;8.70;;;8.90;99.90;;;;;;5071231;28;20132;-66
2021/12/17 10:13:09;;;;;;;18.13;9.05;;;9.00;99.90;;;;;;5058327;28;20045;-66
2021/12/17 10:15:36;;;;;;;20.40;9.13;;;8.90;99.90;;;;;;5058271;28;20084;-65
2021/12/17 10:18:02;;;;;;;23.63;9.57;;;9.00;99.90;;;;;;5069700;28;20063;-66
2021/12/17 10:20:34;;;;;;;24.40;9.55;;;8.90;99.90;;;;;;5064247;28;20467;-66
2021/12/17 10:23:04;;;;;;;19.08;8.98;;;9.00;99.90;;;;;;5071162;28;20479;-66
2021/12/17 10:25:32;;;;;;;20.95;9.40;;;9.00;99.90;;;;;;5068335;28;20052;-67
2021/12/17 10:28:00;;;;;;;18.83;9.50;;;9.00;99.90;;;;;;5069489;28;20528;-67
2021/12/17 10:30:28;;;;;;;22.95;9.45;;;9.00;99.90;;;;;;5070680;28;20490;-67
2021/12/17 10:32:59;;;;;;;23.00;10.10;;;9.00;99.90;;;;;;5058061;28;20049;-67
2021/12/17 10:35:31;;;;;;;20.73;9.70;;;9.00;99.90;;;;;;5051215;28;20356;-65
2021/12/17 10:38:04;;;;;;;17.45;9.35;;;9.00;99.90;;;;;;5063437;28;20036;-65
2021/12/17 10:40:38;;;;;;;21.50;9.00;;;9.00;99.90;;;;;;5050651;28;20173;-64
2021/12/17 10:43:15;;;;;;;24.83;9.52;;;9.00;99.90;;;;;;5050484;28;20127;-66
2021/12/17 10:45:59;;;;;;;24.30;8.82;;;9.10;99.90;;;;;;5054894;28;20033;-66
2021/12/17 10:51:21;;;;;;;17.20;8.80;;;9.10;99.90;;;;;;5062820;28;20044;-67
2021/12/17 10:53:53;;;;;;;25.88;10.18;;;9.10;99.90;;;;;;5064920;28;20049;-67
2021/12/17 10:56:23;;;;;;;22.40;9.05;;;9.10;99.90;;;;;;5050771;28;20049;-65
2021/12/17 10:59:19;;;;;;;15.68;8.20;;;9.10;99.90;;;;;;5053382;28;20363;-65
2021/12/17 11:01:48;;;;;;;17.17;8.13;;;9.20;99.90;;;;;;5052234;28;20072;-67
2021/12/17 11:04:29;;;;;;;16.25;8.18;;;9.20;99.90;;;;;;5053785;28;20127;-66
2021/12/17 11:07:03;;;;;;;15.75;7.93;;;9.20;99.90;;;;;;5062122;28;20055;-66
2021/12/17 11:09:57;;;;;;;14.73;7.50;;;9.30;99.90;;;;;;5073840;28;20441;-68
2021/12/17 11:12:31;;;;;;;15.35;7.32;;;9.30;99.90;;;;;;5051342;28;20479;-67
2021/12/17 11:15:12;;;;;;;14.30;7.35;;;9.30;99.90;;;;;;5055451;28;20495;-67
2021/12/17 11:17:39;;;;;;;10.95;6.05;;;9.30;99.90;;;;;;5053878;28;20045;-67
2021/12/17 11:20:13;;;;;;;11.98;5.90;;;9.40;99.90;;;;;;5051856;28;20135;-66
2021/12/17 11:22:41;;;;;;;8.10;4.97;;;9.40;99.90;;;;;;5054156;28;20099;-66
2021/12/17 11:25:08;;;;;;;10.82;5.32;;;9.40;99.90;;;;;;5053434;28;20056;-66
2021/12/17 11:27:34;;;;;;;8.27;4.70;;;9.40;99.90;;;;;;5062784;28;20115;-65
2021/12/17 11:30:03;;;;;;;8.82;5.30;;;9.40;99.90;;;;;;5073827;28;20068;-66
2021/12/17 11:32:29;;;;;;;13.40;5.57;;;9.40;99.90;;;;;;5054205;28;20037;-65
2021/12/17 11:34:54;;;;;;;10.82;5.85;;;9.40;99.90;;;;;;5063428;28;20045;-66
2021/12/17 11:37:20;;;;;;;8.27;5.00;;;9.40;99.90;;;;;;5071687;28;20397;-67
2021/12/17 11:39:54;;;;;;;9.63;5.55;;;9.40;99.90;;;;;;5065506;28;20151;-68
2021/12/17 11:42:53;;;;;;;7.80;5.15;;;9.40;99.90;;;;;;5053478;28;20069;-67
2021/12/17 11:45:25;;;;;;;9.93;4.60;;;9.40;99.90;;;;;;5053446;28;20098;-66
2021/12/17 11:47:53;;;;;;;9.15;5.50;;;9.40;99.90;;;;;;5053058;28;20292;-67
2021/12/17 11:50:19;;;;;;;7.93;5.05;;;9.40;99.90;;;;;;5053441;28;20103;-66
2021/12/17 11:52:53;;;;;;;9.27;5.35;;;9.40;99.90;;;;;;5063536;28;20480;-67
2021/12/17 11:55:26;;;;;;;13.52;5.43;;;9.30;99.90;;;;;;5069568;28;20481;-66
2021/12/17 11:57:57;;;;;;;8.75;5.15;;;9.30;99.90;;;;;;5052704;28;20037;-66
2021/12/17 12:00:32;;;;;;;8.43;5.43;;;9.30;99.90;;;;;;5051141;28;20049;-68
2021/12/17 12:03:20;;;;;;;10.57;5.80;;;9.20;99.90;;;;;;5052916;28;20509;-66
2021/12/17 12:05:56;;;;;;;19.15;6.28;;;9.20;99.90;;;;;;5067413;28;21064;-66
2021/12/17 12:08:50;;;;;;;9.85;5.60;;;9.20;99.90;;;;;;5072174;28;20048;-67
2021/12/17 12:11:25;;;;;;;9.55;6.10;;;9.30;99.90;;;;;;5052664;28;20049;-66
2021/12/17 12:13:54;;;;;;;14.48;6.22;;;9.20;99.90;;;;;;5052705;28;20513;-66
2021/12/17 12:16:22;;;;;;;12.23;6.15;;;9.20;99.90;;;;;;5052622;28;20041;-66
2021/12/17 12:18:49;;;;;;;9.38;5.93;;;9.30;99.90;;;;;;5059709;28;20036;-66
2021/12/17 12:21:24;;;;;;;10.25;6.18;;;9.30;99.90;;;;;;5053297;28;20125;-66
2021/12/17 12:23:51;;;;;;;9.85;6.45;;;9.30;99.90;;;;;;5050717;28;20163;-66
2021/12/17 12:26:34;;;;;;;12.20;5.95;;;9.30;99.90;;;;;;5052741;28;20055;-67
2021/12/17 12:29:05;;;;;;;11.70;6.38;;;9.30;99.90;;;;;;5050921;28;20410;-68
2021/12/17 12:31:32;;;;;;;16.02;7.90;;;9.30;99.90;;;;;;5053313;28;20090;-67
2021/12/17 12:34:05;;;;;;;14.38;6.93;;;9.30;99.90;;;;;;5057029;28;20517;-66
2021/12/17 12:37:01;;;;;;;12.07;7.00;;;9.30;99.90;;;;;;5058251;28;20037;-67
2021/12/17 12:39:39;;;;;;;11.75;6.90;;;9.30;99.90;;;;;;5051131;28;20372;-68
2021/12/17 12:42:18;;;;;;;12.75;7.05;;;9.30;99.90;;;;;;5069633;28;20436;-66
2021/12/17 12:44:44;;;;;;;10.07;6.10;;;9.30;99.90;;;;;;5058314;28;20056;-67
2021/12/17 12:47:10;;;;;;;12.55;6.50;;;9.40;99.90;;;;;;5052073;28;20056;-66
2021/12/17 12:50:18;;;;;;;9.55;6.57;;;9.40;99.90;;;;;;5061523;28;20128;-66
2021/12/17 12:53:03;;;;;;;11.57;6.43;;;9.40;99.90;;;;;;5052357;28;20049;-66
2021/12/17 12:55:31;;;;;;;9.05;6.40;;;9.40;99.90;;;;;;5052004;28;20082;-66
2021/12/17 12:58:01;;;;;;;9.48;7.00;;;9.40;99.90;;;;;;5034096;28;20562;-66
2021/12/17 13:00:50;;;;;;;11.75;7.13;;;9.40;99.90;;;;;;5051841;28;20053;-66
2021/12/17 13:03:28;;;;;;;11.57;6.88;;;9.40;99.90;;;;;;5051196;28;20037;-66
2021/12/17 13:05:55;;;;;;;13.05;7.28;;;9.40;99.90;;;;;;5056843;28;20049;-66
2021/12/17 13:08:22;;;;;;;10.52;7.55;;;9.40;99.90;;;;;;5051025;28;20391;-66
2021/12/17 13:10:59;;;;;;;10.50;6.80;;;9.40;99.90;;;;;;5067157;28;20052;-65
2021/12/17 13:24:13;;;;;;;12.43;6.60;;;9.40;99.90;;;;;;5064726;28;20060;-67
2021/12/17 13:26:54;;;;;;;11.93;6.82;;;9.40;99.90;;;;;;5071319;28;20453;-66
2021/12/17 13:29:31;;;;;;;7.50;5.82;;;9.40;99.90;;;;;;5050753;28;20053;-66
2021/12/17 13:32:07;;;;;;;11.52;6.80;;;9.40;99.90;;;;;;5051537;28;20415;-66
2021/12/17 13:34:39;;;;;;;9.27;6.57;;;9.40;99.90;;;;;;5059457;28;20116;-67
2021/12/17 13:37:25;;;;;;;10.13;5.80;;;9.40;99.90;;;;;;5069755;28;20041;-66
2021/12/17 13:39:55;;;;;;;9.75;6.13;;;9.40;99.90;;;;;;5053094;28;20442;-66
2021/12/17 13:42:42;;;;;;;10.15;6.88;;;9.50;99.90;;;;;;5067061;28;20051;-67
2021/12/17 13:45:13;;;;;;;9.48;6.15;;;9.50;99.90;;;;;;5070759;28;20063;-66
2021/12/17 13:47:40;;;;;;;11.95;6.15;;;9.40;99.90;;;;;;5064724;28;20440;-67
2021/12/17 13:50:17;;;;;;;11.45;6.47;;;9.40;99.90;;;;;;5051222;28;20045;-67
2021/12/17 13:52:55;;;;;;;10.38;6.53;;;9.40;99.90;;;;;;5054411;28;20029;-67
2021/12/17 13:55:31;;;;;;;9.02;6.50;;;9.40;99.90;;;;;;5069509;28;20124;-65
2021/12/17 13:57:58;;;;;;;12.95;6.90;;;9.40;99.90;;;;;;5061029;28;20040;-65
2021/12/17 14:00:30;;;;;;;9.30;6.20;;;9.50;99.90;;;;;;5051115;28;20052;-66
2021/12/17 14:02:58;;;;;;;9.38;6.47;;;9.50;99.90;;;;;;5050287;28;20443;-66
2021/12/17 14:05:29;;;;;;;12.00;6.70;;;9.50;99.90;;;;;;5064343;28;20041;-66
2021/12/17 14:08:00;;;;;;;11.63;6.15;;;9.40;99.90;;;;;;5062903;28;20080;-67
2021/12/17 14:10:34;;;;;;;8.60;5.93;;;9.50;99.90;;;;;;5052420;28;20555;-66
2021/12/17 14:13:04;;;;;;;10.60;5.60;;;9.40;99.90;;;;;;5054367;28;20044;-67
2021/12/17 14:15:33;;;;;;;10.40;6.35;;;9.40;99.90;;;;;;5049178;28;20522;-67
2021/12/17 14:18:05;;;;;;;7.68;5.88;;;9.40;99.90;;;;;;5067216;28;20048;-67
2021/12/17 14:20:38;;;;;;;11.95;6.55;;;9.40;99.90;;;;;;5058445;28;20456;-67
2021/12/17 14:23:06;;;;;;;14.98;7.30;;;9.40;99.90;;;;;;5055315;28;20513;-66
2021/12/17 14:25:40;;;;;;;9.98;6.90;;;9.40;99.90;;;;;;5050905;28;20041;-67
2021/12/17 14:28:27;;;;;;;12.00;6.53;;;9.40;99.90;;;;;;5054600;28;20450;-65
2021/12/17 14:31:03;;;;;;;10.05;6.47;;;9.40;99.90;;;;;;5049958;28;20045;-66
2021/12/17 14:33:37;;;;;;;11.85;7.07;;;9.40;99.90;;;;;;5049155;28;20045;-66
2021/12/17 14:36:06;;;;;;;12.27;6.25;;;9.40;99.90;;;;;;5060768;28;20151;-67
2021/12/17 14:38:52;;;;;;;13.48;6.80;;;9.40;99.90;;;;;;5051794;28;20045;-66
2021/12/17 14:41:24;;;;;;;12.10;7.00;;;9.40;99.90;;;;;;5065618;28;20048;-67
2021/12/17 14:44:08;;;;;;;13.27;6.38;;;9.40;99.90;;;;;;5052298;28;20045;-66
2021/12/17 15:05:20;;;;;;;8.13;6.20;;;9.40;99.90;;;;;;5062444;28;20044;-65
2021/12/17 15:07:46;;;;;;;10.88;6.95;;;9.40;99.90;;;;;;5055145;28;20510;-65
2021/12/17 15:10:14;;;;;;;11.38;7.13;;;10.10;99.90;;;;;;5062603;28;20049;-67
2021/12/17 15:12:40;;;;;;;15.05;6.55;;;9.40;99.90;;;;;;5050522;28;20406;-67
2021/12/17 15:15:09;;;;;;;13.55;6.88;;;9.30;99.90;;;;;;5050676;28;20041;-68
2021/12/17 15:17:35;;;;;;;10.98;7.32;;;9.30;99.90;;;;;;5048519;28;20049;-66
2021/12/17 15:20:01;;;;;;;11.73;7.22;;;9.30;99.90;;;;;;5050308;28;20104;-66
2021/12/17 15:22:27;;;;;;;12.57;7.13;;;9.40;99.90;;;;;;5050263;28;20079;-67
2021/12/17 15:24:53;;;;;;;11.50;7.50;;;9.30;99.90;;;;;;5049969;28;20484;-67
2021/12/17 15:27:20;;;;;;;12.48;7.22;;;9.30;99.90;;;;;;5042075;28;20041;-66
2021/12/17 15:29:46;;;;;;;18.40;7.50;;;9.30;99.90;;;;;;5048795;28;20049;-66
2021/12/17 15:32:12;;;;;;;17.23;8.35;;;9.30;99.90;;;;;;5058081;28;21672;-68
2021/12/17 15:34:37;;;;;;;19.45;8.40;;;9.30;99.90;;;;;;5056970;28;20447;-67
2021/12/17 15:37:03;;;;;;;15.15;8.48;;;9.30;99.90;;;;;;5050165;28;20463;-65
2021/12/17 15:39:29;;;;;;;17.05;7.90;;;9.30;99.90;;;;;;5056024;28;20530;-66
2021/12/17 15:41:55;;;;;;;21.75;9.02;;;9.30;99.90;;;;;;5050098;28;20036;-66
2021/12/17 15:44:21;;;;;;;18.90;9.70;;;9.20;99.90;;;;;;5052994;28;20045;-66
2021/12/17 15:46:47;;;;;;;20.58;9.98;;;9.20;99.90;;;;;;5045396;28;20059;-65
2021/12/17 15:49:13;;;;;;;21.75;9.48;;;9.10;99.90;;;;;;5049643;28;20453;-65
2021/12/17 15:51:39;;;;;;;24.65;10.18;;;9.20;99.90;;;;;;5049813;28;20041;-66
2021/12/17 15:54:05;;;;;;;21.35;9.30;;;9.10;99.90;;;;;;5048393;28;20117;-67
2021/12/17 15:56:32;;;;;;;19.95;9.95;;;9.10;99.90;;;;;;5054458;28;20144;-66
2021/12/17 15:58:58;;;;;;;19.60;10.10;;;9.10;99.90;;;;;;5060397;28;20044;-67
2021/12/17 16:01:24;;;;;;;19.08;9.77;;;9.10;99.90;;;;;;5052947;28;20413;-67
2021/12/17 16:03:50;;;;;;;18.30;10.15;;;9.10;99.90;;;;;;5062271;28;20317;-67
2021/12/17 16:06:16;;;;;;;20.20;10.05;;;9.10;99.90;;;;;;5053525;28;20037;-69
2021/12/17 16:08:49;;;;;;;26.90;10.63;;;9.00;99.90;;;;;;5058999;28;20037;-66
2021/12/17 16:21:44;;;;;;;32.25;10.63;;;8.90;99.90;;;;;;5067539;28;20110;-67
2021/12/17 16:24:11;;;;;;;24.35;9.55;;;8.90;99.90;;;;;;5054715;28;20118;-67
2021/12/17 16:26:36;;;;;;;18.35;9.05;;;8.90;99.90;;;;;;5053171;28;20053;-67
2021/12/17 16:29:02;;;;;;;26.58;10.25;;;8.90;99.90;;;;;;5051714;28;20090;-68
2021/12/17 16:31:31;;;;;;;30.17;9.45;;;8.80;99.90;;;;;;5060314;28;20044;-66
2021/12/17 16:34:01;;;;;;;21.52;8.65;;;8.80;99.90;;;;;;5063345;28;20049;-68
2021/12/17 16:36:28;;;;;;;13.70;6.88;;;8.80;99.90;;;;;;5054797;28;20059;-67